createdAt,value
2017-02-01T00:00:02.781Z,1018.03
2017-02-01T00:05:02.951Z,1018.13
2017-02-01T00:10:02.764Z,1018.16
2017-02-01T00:15:03.314Z,1018.16
2017-02-01T00:20:02.867Z,1018.04
2017-02-01T00:25:03.438Z,1017.94
2017-02-01T00:30:02.886Z,1017.9
2017-02-01T00:35:03.323Z,1017.95
2017-02-01T00:40:02.825Z,1017.94
2017-02-01T00:45:03.451Z,1017.94
2017-02-01T00:50:03.343Z,1017.77
2017-02-01T00:55:02.889Z,1017.75
2017-02-01T01:00:02.617Z,1017.73
2017-02-01T01:05:03.644Z,1017.81
2017-02-01T01:10:03.394Z,1017.73
2017-02-01T01:15:02.861Z,1017.65
2017-02-01T01:20:03.341Z,1017.63
2017-02-01T01:25:02.863Z,1017.66
2017-02-01T01:30:03.423Z,1017.67
2017-02-01T01:35:02.800Z,1017.75
2017-02-01T01:40:03.305Z,1017.7
2017-02-01T01:45:02.808Z,1017.73
2017-02-01T01:50:03.483Z,1017.73
2017-02-01T01:55:02.693Z,1017.73
2017-02-01T02:00:03.389Z,1017.66
2017-02-01T02:05:02.897Z,1017.63
2017-02-01T02:10:02.592Z,1017.67
2017-02-01T02:15:02.899Z,1017.61
2017-02-01T02:20:03.357Z,1017.54
2017-02-01T02:25:02.933Z,1017.57
2017-02-01T02:30:03.373Z,1017.49
2017-02-01T02:35:02.974Z,1017.47
2017-02-01T02:40:03.422Z,1017.46
2017-02-01T02:45:03.169Z,1017.32
2017-02-01T02:50:03.558Z,1017.32
2017-02-01T02:55:03.500Z,1017.34
2017-02-01T03:00:02.900Z,1017.31
2017-02-01T03:05:03.372Z,1017.31
2017-02-01T03:10:02.869Z,1017.27
2017-02-01T03:15:02.703Z,1017.23
2017-02-01T03:20:03.259Z,1017.22
2017-02-01T03:25:02.826Z,1017.25
2017-02-01T03:30:03.292Z,1017.28
2017-02-01T03:35:03.203Z,1017.26
2017-02-01T03:40:02.676Z,1017.26
2017-02-01T03:45:03.585Z,1017.25
2017-02-01T03:50:03.136Z,1017.17
2017-02-01T03:55:02.719Z,1017.08
2017-02-01T04:00:03.072Z,1016.98
2017-02-01T04:05:02.740Z,1016.95
2017-02-01T04:10:02.603Z,1016.98
2017-02-01T04:15:03.020Z,1016.9
2017-02-01T04:20:02.738Z,1016.95
2017-02-01T04:25:03.354Z,1016.92
2017-02-01T04:30:03.035Z,1016.96
2017-02-01T04:35:03.518Z,1016.92
2017-02-01T04:40:03.448Z,1017
2017-02-01T04:45:03.271Z,1016.98
2017-02-01T04:50:03.147Z,1016.95
2017-02-01T04:55:02.764Z,1017.03
2017-02-01T05:00:03.243Z,1016.93
2017-02-01T05:05:02.843Z,1016.99
2017-02-01T05:10:03.309Z,1016.96
2017-02-01T05:15:03.293Z,1016.87
2017-02-01T05:20:02.576Z,1016.87
2017-02-01T05:25:03.268Z,1016.83
2017-02-01T05:30:03.452Z,1016.79
2017-02-01T05:35:02.691Z,1016.77
2017-02-01T05:40:03.390Z,1016.67
2017-02-01T05:45:03.131Z,1016.61
2017-02-01T05:50:03.575Z,1016.57
2017-02-01T05:55:02.874Z,1016.61
2017-02-01T06:00:03.306Z,1016.68
2017-02-01T06:05:03.596Z,1016.66
2017-02-01T06:10:03.459Z,1016.65
2017-02-01T06:15:03.145Z,1016.63
2017-02-01T06:20:03.551Z,1016.64
2017-02-01T06:25:02.906Z,1016.62
2017-02-01T06:30:02.742Z,1016.66
2017-02-01T06:35:02.659Z,1016.68
2017-02-01T06:40:03.125Z,1016.63
2017-02-01T06:45:02.692Z,1016.59
2017-02-01T06:50:03.269Z,1016.68
2017-02-01T06:55:03.719Z,1016.65
2017-02-01T07:00:03.303Z,1016.56
2017-02-01T07:05:02.951Z,1016.62
2017-02-01T07:10:02.640Z,1016.58
2017-02-01T07:15:03.404Z,1016.6
2017-02-01T07:20:02.768Z,1016.64
2017-02-01T07:25:03.250Z,1016.59
2017-02-01T07:30:03.603Z,1016.63
2017-02-01T07:35:03.283Z,1016.62
2017-02-01T07:40:03.069Z,1016.64
2017-02-01T07:45:02.740Z,1016.69
2017-02-01T07:50:03.356Z,1016.7
2017-02-01T07:55:03.247Z,1016.66
2017-02-01T08:00:02.841Z,1016.65
2017-02-01T08:05:03.605Z,1016.63
2017-02-01T08:10:03.005Z,1016.71
2017-02-01T08:15:02.554Z,1016.72
2017-02-01T08:20:03.112Z,1016.7
2017-02-01T08:25:02.786Z,1016.72
2017-02-01T08:30:03.291Z,1016.69
2017-02-01T08:35:03.151Z,1016.59
2017-02-01T08:40:03.628Z,1016.6
2017-02-01T08:45:03.184Z,1016.63
2017-02-01T08:50:03.624Z,1016.6
2017-02-01T08:55:03.257Z,1016.54
2017-02-01T09:00:02.696Z,1016.49
2017-02-01T09:05:03.335Z,1016.47
2017-02-01T09:10:02.842Z,1016.37
2017-02-01T09:15:03.556Z,1016.38
2017-02-01T09:20:03.079Z,1016.37
2017-02-01T09:25:02.780Z,1016.4
2017-02-01T09:30:03.462Z,1016.49
2017-02-01T09:35:02.866Z,1016.44
2017-02-01T09:40:03.224Z,1016.46
2017-02-01T09:45:02.712Z,1016.41
2017-02-01T09:50:03.272Z,1016.37
2017-02-01T09:55:03.513Z,1016.41
2017-02-01T10:00:03.408Z,1016.34
2017-02-01T10:05:02.887Z,1016.31
2017-02-01T10:10:03.448Z,1016.17
2017-02-01T10:15:02.847Z,1016.3
2017-02-01T10:20:02.749Z,1016.22
2017-02-01T10:25:03.484Z,1016.19
2017-02-01T10:30:02.849Z,1016.06
2017-02-01T10:35:02.632Z,1016.09
2017-02-01T10:40:03.504Z,1016.15
2017-02-01T10:45:03.142Z,1016.05
2017-02-01T10:50:02.779Z,1015.97
2017-02-01T10:55:03.596Z,1015.88
2017-02-01T11:00:03.611Z,1015.78
2017-02-01T11:05:03.299Z,1015.69
2017-02-01T11:10:02.842Z,1015.58
2017-02-01T11:15:03.373Z,1015.37
2017-02-01T11:20:03.178Z,1015.3
2017-02-01T11:25:03.394Z,1015.18
2017-02-01T11:30:02.660Z,1015.05
2017-02-01T11:35:03.430Z,1014.97
2017-02-01T11:40:02.888Z,1014.9
2017-02-01T11:45:03.448Z,1014.84
2017-02-01T11:50:03.073Z,1014.89
2017-02-01T11:55:02.799Z,1014.93
2017-02-01T12:00:03.514Z,1014.84
2017-02-01T12:05:03.268Z,1014.76
2017-02-01T12:10:02.899Z,1014.69
2017-02-01T12:15:02.995Z,1014.74
2017-02-01T12:20:02.901Z,1014.57
2017-02-01T12:25:02.785Z,1014.49
2017-02-01T12:30:02.847Z,1014.42
2017-02-01T12:35:03.084Z,1014.39
2017-02-01T12:40:03.395Z,1014.21
2017-02-01T12:45:03.406Z,1014.06
2017-02-01T12:50:03.293Z,1013.96
2017-02-01T12:55:03.248Z,1013.91
2017-02-01T13:00:02.800Z,1013.79
2017-02-01T13:05:03.474Z,1013.81
2017-02-01T13:10:03.216Z,1013.78
2017-02-01T13:15:03.253Z,1013.82
2017-02-01T13:20:02.821Z,1013.83
2017-02-01T13:25:02.882Z,1013.9
2017-02-01T13:30:03.570Z,1013.95
2017-02-01T13:35:02.696Z,1013.85
2017-02-01T13:40:03.475Z,1013.81
2017-02-01T13:45:03.073Z,1013.66
2017-02-01T13:50:03.333Z,1013.51
2017-02-01T13:55:03.424Z,1013.46
2017-02-01T14:00:02.928Z,1013.41
2017-02-01T14:05:03.137Z,1013.59
2017-02-01T14:10:03.653Z,1013.46
2017-02-01T14:15:03.193Z,1013.46
2017-02-01T14:20:02.956Z,1013.38
2017-02-01T14:25:02.683Z,1013.28
2017-02-01T14:30:03.087Z,1013.25
2017-02-01T14:35:03.235Z,1013.06
2017-02-01T14:40:03.102Z,1013.11
2017-02-01T14:45:03.549Z,1013.09
2017-02-01T14:50:03.195Z,1013.14
2017-02-01T14:55:02.751Z,1013.08
2017-02-01T15:00:02.684Z,1013.08
2017-02-01T15:05:03.328Z,1013.03
2017-02-01T15:10:03.415Z,1013.06
2017-02-01T15:15:03.227Z,1013.04
2017-02-01T15:20:03.476Z,1013
2017-02-01T15:25:02.696Z,1012.98
2017-02-01T15:30:03.520Z,1012.85
2017-02-01T15:35:02.686Z,1012.73
2017-02-01T15:40:02.899Z,1012.72
2017-02-01T15:45:02.709Z,1012.6
2017-02-01T15:50:03.164Z,1012.6
2017-02-01T15:55:03.327Z,1012.53
2017-02-01T16:00:03.294Z,1012.55
2017-02-01T16:05:03.443Z,1012.47
2017-02-01T16:10:02.790Z,1012.45
2017-02-01T16:15:03.689Z,1012.33
2017-02-01T16:20:03.220Z,1012.18
2017-02-01T16:25:02.889Z,1012.21
2017-02-01T16:30:03.569Z,1012.11
2017-02-01T16:35:03.524Z,1012.16
2017-02-01T16:40:03.181Z,1012.03
2017-02-01T16:45:02.929Z,1011.93
2017-02-01T16:50:03.393Z,1011.93
2017-02-01T16:55:03.134Z,1012.05
2017-02-01T17:00:02.687Z,1012.09
2017-02-01T17:05:03.228Z,1012.03
2017-02-01T17:10:02.857Z,1011.87
2017-02-01T17:15:03.424Z,1011.71
2017-02-01T17:20:02.942Z,1011.79
2017-02-01T17:25:02.597Z,1011.84
2017-02-01T17:30:03.253Z,1011.88
2017-02-01T17:35:02.853Z,1011.98
2017-02-01T17:40:03.206Z,1011.95
2017-02-01T17:45:02.666Z,1011.89
2017-02-01T17:50:03.378Z,1011.82
2017-02-01T17:55:02.836Z,1011.83
2017-02-01T18:00:03.391Z,1011.77
2017-02-01T18:05:03.112Z,1011.64
2017-02-01T18:10:02.800Z,1011.7
2017-02-01T18:15:03.543Z,1011.72
2017-02-01T18:20:03.264Z,1011.63
2017-02-01T18:25:02.955Z,1011.41
2017-02-01T18:30:03.535Z,1011.49
2017-02-01T18:35:02.827Z,1011.44
2017-02-01T18:40:03.230Z,1011.48
2017-02-01T18:45:02.859Z,1011.48
2017-02-01T18:50:03.199Z,1011.47
2017-02-01T18:55:02.729Z,1011.44
2017-02-01T19:00:03.279Z,1011.43
2017-02-01T19:05:02.642Z,1011.6
2017-02-01T19:10:02.964Z,1011.49
2017-02-01T19:15:03.563Z,1011.38
2017-02-01T19:20:03.119Z,1011.41
2017-02-01T19:25:02.647Z,1011.45
2017-02-01T19:30:03.281Z,1011.45
2017-02-01T19:35:02.972Z,1011.37
2017-02-01T19:40:03.769Z,1011.51
2017-02-01T19:45:03.262Z,1011.48
2017-02-01T19:50:02.577Z,1011.51
2017-02-01T19:55:02.933Z,1011.5
2017-02-01T20:00:03.359Z,1011.4
2017-02-01T20:05:03.056Z,1011.32
2017-02-01T20:10:02.709Z,1011.42
2017-02-01T20:15:03.379Z,1011.42
2017-02-01T20:20:02.924Z,1011.42
2017-02-01T20:25:03.337Z,1011.38
2017-02-01T20:30:02.719Z,1011.32
2017-02-01T20:35:02.973Z,1011.31
2017-02-01T20:40:03.584Z,1011.26
2017-02-01T20:45:03.065Z,1011.26
2017-02-01T20:50:03.666Z,1011.18
2017-02-01T20:55:03.467Z,1011.08
2017-02-01T21:00:02.741Z,1011.11
2017-02-01T21:05:03.170Z,1011.05
2017-02-01T21:10:02.703Z,1011.1
2017-02-01T21:15:03.318Z,1011.03
2017-02-01T21:20:02.902Z,1010.99
2017-02-01T21:25:03.422Z,1010.94
2017-02-01T21:30:02.640Z,1010.88
2017-02-01T21:35:03.052Z,1010.9
2017-02-01T21:40:03.373Z,1010.8
2017-02-01T21:45:02.867Z,1010.74
2017-02-01T21:50:03.344Z,1010.86
2017-02-01T21:55:03.139Z,1010.79
2017-02-01T22:00:02.710Z,1010.76
2017-02-01T22:05:03.407Z,1010.69
2017-02-01T22:10:02.861Z,1010.72
2017-02-01T22:15:02.705Z,1010.7
2017-02-01T22:20:03.099Z,1010.67
2017-02-01T22:25:03.379Z,1010.68
2017-02-01T22:30:02.894Z,1010.65
2017-02-01T22:35:03.383Z,1010.56
2017-02-01T22:40:02.835Z,1010.51
2017-02-01T22:45:03.496Z,1010.47
2017-02-01T22:50:03.007Z,1010.52
2017-02-01T22:55:02.592Z,1010.54
2017-02-01T23:00:03.062Z,1010.46
2017-02-01T23:05:02.757Z,1010.45
2017-02-01T23:10:03.127Z,1010.46
2017-02-01T23:15:03.452Z,1010.43
2017-02-01T23:20:03.068Z,1010.43
2017-02-01T23:25:03.333Z,1010.53
2017-02-01T23:30:02.787Z,1010.51
2017-02-01T23:35:03.392Z,1010.45
2017-02-01T23:40:02.907Z,1010.3
2017-02-01T23:45:03.477Z,1010.28
2017-02-01T23:50:03.032Z,1010.35
2017-02-01T23:55:02.875Z,1010.36
